sensor_id;sensor_type;location;lat;lon;timestamp;P1;durP1;ratioP1;P2;durP2;ratioP2
44987;SDS011;35735;52.226;21.254;2022-08-03T00:02:11;12.23;;;8.45;;
44987;SDS011;35735;52.226;21.254;2022-08-03T00:07:12;9.25;;;7.40;;
44987;SDS011;35735;52.226;21.254;2022-08-03T00:12:12;9.40;;;7.82;;
44987;SDS011;35735;52.226;21.254;2022-08-03T00:17:13;9.98;;;7.87;;
44987;SDS011;35735;52.226;21.254;2022-08-03T00:22:13;10.45;;;7.90;;
44987;SDS011;35735;52.226;21.254;2022-08-03T00:27:14;11.15;;;8.13;;
44987;SDS011;35735;52.226;21.254;2022-08-03T00:32:15;13.27;;;8.50;;
44987;SDS011;35735;52.226;21.254;2022-08-03T00:37:15;10.88;;;7.95;;
44987;SDS011;35735;52.226;21.254;2022-08-03T00:42:16;9.98;;;7.82;;
44987;SDS011;35735;52.226;21.254;2022-08-03T00:47:16;11.90;;;8.50;;
44987;SDS011;35735;52.226;21.254;2022-08-03T00:52:17;11.77;;;8.27;;
44987;SDS011;35735;52.226;21.254;2022-08-03T00:57:17;10.77;;;8.23;;
44987;SDS011;35735;52.226;21.254;2022-08-03T01:02:18;11.88;;;8.00;;
44987;SDS011;35735;52.226;21.254;2022-08-03T01:07:53;10.48;;;8.50;;
44987;SDS011;35735;52.226;21.254;2022-08-03T01:18:51;10.48;;;8.18;;
44987;SDS011;35735;52.226;21.254;2022-08-03T01:34:50;12.70;;;8.43;;
44987;SDS011;35735;52.226;21.254;2022-08-03T01:39:58;9.48;;;7.68;;
44987;SDS011;35735;52.226;21.254;2022-08-03T01:45:02;11.25;;;8.48;;
44987;SDS011;35735;52.226;21.254;2022-08-03T01:50:04;11.43;;;8.07;;
44987;SDS011;35735;52.226;21.254;2022-08-03T01:55:08;8.98;;;7.90;;
44987;SDS011;35735;52.226;21.254;2022-08-03T02:00:13;10.35;;;7.93;;
44987;SDS011;35735;52.226;21.254;2022-08-03T02:05:14;9.48;;;8.05;;
44987;SDS011;35735;52.226;21.254;2022-08-03T02:10:18;10.27;;;7.60;;
44987;SDS011;35735;52.226;21.254;2022-08-03T02:15:20;12.52;;;8.18;;
44987;SDS011;35735;52.226;21.254;2022-08-03T02:20:22;9.95;;;7.90;;
44987;SDS011;35735;52.226;21.254;2022-08-03T02:25:24;9.68;;;7.78;;
44987;SDS011;35735;52.226;21.254;2022-08-03T02:30:26;9.13;;;8.23;;
44987;SDS011;35735;52.226;21.254;2022-08-03T02:35:33;9.60;;;7.82;;
44987;SDS011;35735;52.226;21.254;2022-08-03T02:40:36;11.12;;;7.93;;
44987;SDS011;35735;52.226;21.254;2022-08-03T02:45:41;10.25;;;8.20;;
44987;SDS011;35735;52.226;21.254;2022-08-03T02:50:44;14.23;;;8.77;;
44987;SDS011;35735;52.226;21.254;2022-08-03T02:55:47;9.23;;;8.05;;
44987;SDS011;35735;52.226;21.254;2022-08-03T03:00:49;11.25;;;7.97;;
44987;SDS011;35735;52.226;21.254;2022-08-03T03:05:51;8.73;;;7.78;;
44987;SDS011;35735;52.226;21.254;2022-08-03T03:10:52;12.60;;;8.07;;
44987;SDS011;35735;52.226;21.254;2022-08-03T03:15:56;11.48;;;8.32;;
44987;SDS011;35735;52.226;21.254;2022-08-03T03:21:00;10.95;;;8.73;;
44987;SDS011;35735;52.226;21.254;2022-08-03T03:26:03;8.65;;;7.62;;
44987;SDS011;35735;52.226;21.254;2022-08-03T03:31:05;8.52;;;7.72;;
44987;SDS011;35735;52.226;21.254;2022-08-03T03:36:07;16.30;;;8.30;;
44987;SDS011;35735;52.226;21.254;2022-08-03T03:41:08;17.27;;;8.10;;
44987;SDS011;35735;52.226;21.254;2022-08-03T03:46:11;18.65;;;8.27;;
44987;SDS011;35735;52.226;21.254;2022-08-03T03:51:12;23.73;;;8.63;;
44987;SDS011;35735;52.226;21.254;2022-08-03T03:56:14;23.95;;;9.43;;
44987;SDS011;35735;52.226;21.254;2022-08-03T04:01:14;18.33;;;9.05;;
44987;SDS011;35735;52.226;21.254;2022-08-03T04:06:15;11.32;;;8.30;;
44987;SDS011;35735;52.226;21.254;2022-08-03T04:11:24;11.55;;;8.68;;
44987;SDS011;35735;52.226;21.254;2022-08-03T04:16:33;10.55;;;9.30;;
44987;SDS011;35735;52.226;21.254;2022-08-03T04:21:39;12.15;;;9.48;;
44987;SDS011;35735;52.226;21.254;2022-08-03T04:26:43;11.63;;;8.82;;
44987;SDS011;35735;52.226;21.254;2022-08-03T04:31:46;13.82;;;9.77;;
44987;SDS011;35735;52.226;21.254;2022-08-03T04:36:48;11.65;;;9.38;;
44987;SDS011;35735;52.226;21.254;2022-08-03T04:41:53;11.48;;;8.60;;
44987;SDS011;35735;52.226;21.254;2022-08-03T04:46:59;16.35;;;9.30;;
44987;SDS011;35735;52.226;21.254;2022-08-03T04:52:00;13.07;;;9.52;;
44987;SDS011;35735;52.226;21.254;2022-08-03T04:57:01;9.52;;;8.63;;
44987;SDS011;35735;52.226;21.254;2022-08-03T05:02:01;10.73;;;8.02;;
44987;SDS011;35735;52.226;21.254;2022-08-03T05:07:02;10.15;;;7.78;;
44987;SDS011;35735;52.226;21.254;2022-08-03T05:12:03;11.10;;;8.15;;
44987;SDS011;35735;52.226;21.254;2022-08-03T05:17:05;8.32;;;6.65;;
44987;SDS011;35735;52.226;21.254;2022-08-03T05:22:09;9.23;;;7.10;;
44987;SDS011;35735;52.226;21.254;2022-08-03T05:27:09;10.15;;;6.93;;
44987;SDS011;35735;52.226;21.254;2022-08-03T05:32:10;9.65;;;6.57;;
44987;SDS011;35735;52.226;21.254;2022-08-03T05:37:11;16.02;;;6.60;;
44987;SDS011;35735;52.226;21.254;2022-08-03T05:42:13;14.98;;;6.20;;
44987;SDS011;35735;52.226;21.254;2022-08-03T05:47:14;11.93;;;6.82;;
44987;SDS011;35735;52.226;21.254;2022-08-03T05:52:15;14.93;;;7.07;;
44987;SDS011;35735;52.226;21.254;2022-08-03T05:57:16;9.50;;;6.10;;
44987;SDS011;35735;52.226;21.254;2022-08-03T06:02:16;49.78;;;9.68;;
44987;SDS011;35735;52.226;21.254;2022-08-03T06:07:17;11.68;;;7.12;;
44987;SDS011;35735;52.226;21.254;2022-08-03T06:12:17;10.30;;;6.40;;
44987;SDS011;35735;52.226;21.254;2022-08-03T06:17:18;9.27;;;6.82;;
44987;SDS011;35735;52.226;21.254;2022-08-03T06:22:18;11.75;;;6.60;;
44987;SDS011;35735;52.226;21.254;2022-08-03T06:27:20;13.40;;;7.62;;
44987;SDS011;35735;52.226;21.254;2022-08-03T06:32:21;13.20;;;8.35;;
44987;SDS011;35735;52.226;21.254;2022-08-03T06:37:21;11.25;;;8.35;;
44987;SDS011;35735;52.226;21.254;2022-08-03T06:42:22;20.50;;;9.10;;
44987;SDS011;35735;52.226;21.254;2022-08-03T06:47:23;11.60;;;9.90;;
44987;SDS011;35735;52.226;21.254;2022-08-03T06:52:23;11.93;;;9.23;;
44987;SDS011;35735;52.226;21.254;2022-08-03T06:57:24;12.95;;;9.75;;
44987;SDS011;35735;52.226;21.254;2022-08-03T07:02:24;14.90;;;9.18;;
44987;SDS011;35735;52.226;21.254;2022-08-03T07:07:25;12.57;;;9.50;;
44987;SDS011;35735;52.226;21.254;2022-08-03T07:12:26;10.75;;;9.30;;
44987;SDS011;35735;52.226;21.254;2022-08-03T07:17:28;12.10;;;9.73;;
44987;SDS011;35735;52.226;21.254;2022-08-03T07:22:31;25.25;;;10.27;;
44987;SDS011;35735;52.226;21.254;2022-08-03T07:27:32;14.05;;;10.10;;
44987;SDS011;35735;52.226;21.254;2022-08-03T07:32:33;26.87;;;10.57;;
44987;SDS011;35735;52.226;21.254;2022-08-03T07:37:33;16.50;;;10.35;;
44987;SDS011;35735;52.226;21.254;2022-08-03T07:42:34;11.32;;;10.18;;
44987;SDS011;35735;52.226;21.254;2022-08-03T07:47:35;13.93;;;10.18;;
44987;SDS011;35735;52.226;21.254;2022-08-03T07:52:35;17.25;;;10.25;;
44987;SDS011;35735;52.226;21.254;2022-08-03T07:57:36;12.75;;;11.12;;
44987;SDS011;35735;52.226;21.254;2022-08-03T08:02:36;33.58;;;11.25;;
44987;SDS011;35735;52.226;21.254;2022-08-03T08:07:37;13.77;;;11.77;;
44987;SDS011;35735;52.226;21.254;2022-08-03T08:12:39;12.10;;;10.52;;
44987;SDS011;35735;52.226;21.254;2022-08-03T08:17:41;14.90;;;10.70;;
44987;SDS011;35735;52.226;21.254;2022-08-03T08:22:48;12.00;;;10.75;;
44987;SDS011;35735;52.226;21.254;2022-08-03T08:27:48;27.75;;;11.05;;
44987;SDS011;35735;52.226;21.254;2022-08-03T08:32:49;15.05;;;10.35;;
44987;SDS011;35735;52.226;21.254;2022-08-03T08:37:50;15.50;;;10.75;;
44987;SDS011;35735;52.226;21.254;2022-08-03T08:42:51;14.35;;;9.98;;
44987;SDS011;35735;52.226;21.254;2022-08-03T08:47:51;18.52;;;9.85;;
44987;SDS011;35735;52.226;21.254;2022-08-03T08:52:55;12.05;;;8.05;;
44987;SDS011;35735;52.226;21.254;2022-08-03T08:58:03;7.97;;;7.22;;
44987;SDS011;35735;52.226;21.254;2022-08-03T09:03:05;8.07;;;6.25;;
44987;SDS011;35735;52.226;21.254;2022-08-03T09:08:06;18.83;;;7.25;;
44987;SDS011;35735;52.226;21.254;2022-08-03T09:13:06;17.42;;;7.10;;
44987;SDS011;35735;52.226;21.254;2022-08-03T09:18:07;8.70;;;5.00;;
44987;SDS011;35735;52.226;21.254;2022-08-03T09:23:08;8.20;;;4.70;;
44987;SDS011;35735;52.226;21.254;2022-08-03T09:28:10;6.87;;;5.00;;
44987;SDS011;35735;52.226;21.254;2022-08-03T09:33:13;7.78;;;4.47;;
44987;SDS011;35735;52.226;21.254;2022-08-03T09:38:15;12.40;;;4.55;;
44987;SDS011;35735;52.226;21.254;2022-08-03T09:43:20;16.12;;;4.47;;
44987;SDS011;35735;52.226;21.254;2022-08-03T09:48:25;7.62;;;4.45;;
44987;SDS011;35735;52.226;21.254;2022-08-03T09:53:31;4.93;;;4.28;;
44987;SDS011;35735;52.226;21.254;2022-08-03T09:58:46;10.25;;;4.40;;
44987;SDS011;35735;52.226;21.254;2022-08-03T10:03:49;8.70;;;4.78;;
44987;SDS011;35735;52.226;21.254;2022-08-03T10:09:07;5.80;;;4.47;;
44987;SDS011;35735;52.226;21.254;2022-08-03T10:14:12;21.20;;;6.40;;
44987;SDS011;35735;52.226;21.254;2022-08-03T10:19:13;5.95;;;4.78;;
44987;SDS011;35735;52.226;21.254;2022-08-03T10:24:16;5.35;;;4.85;;
44987;SDS011;35735;52.226;21.254;2022-08-03T10:29:24;5.25;;;4.37;;
44987;SDS011;35735;52.226;21.254;2022-08-03T10:34:28;6.22;;;4.50;;
44987;SDS011;35735;52.226;21.254;2022-08-03T10:39:34;6.35;;;4.68;;
44987;SDS011;35735;52.226;21.254;2022-08-03T10:44:38;14.55;;;4.78;;
44987;SDS011;35735;52.226;21.254;2022-08-03T10:49:40;4.68;;;4.15;;
44987;SDS011;35735;52.226;21.254;2022-08-03T10:54:42;8.98;;;4.18;;
44987;SDS011;35735;52.226;21.254;2022-08-03T11:04:44;5.70;;;4.10;;
44987;SDS011;35735;52.226;21.254;2022-08-03T11:09:45;14.80;;;4.95;;
44987;SDS011;35735;52.226;21.254;2022-08-03T11:14:48;6.95;;;4.28;;
44987;SDS011;35735;52.226;21.254;2022-08-03T11:19:50;6.50;;;4.70;;
44987;SDS011;35735;52.226;21.254;2022-08-03T11:40:39;4.97;;;4.47;;
44987;SDS011;35735;52.226;21.254;2022-08-03T11:51:05;9.43;;;4.70;;
44987;SDS011;35735;52.226;21.254;2022-08-03T11:56:07;7.47;;;4.57;;
44987;SDS011;35735;52.226;21.254;2022-08-03T12:01:07;5.60;;;4.72;;
44987;SDS011;35735;52.226;21.254;2022-08-03T12:06:09;6.35;;;4.57;;
44987;SDS011;35735;52.226;21.254;2022-08-03T12:11:13;14.32;;;4.90;;
44987;SDS011;35735;52.226;21.254;2022-08-03T12:16:18;4.78;;;4.12;;
44987;SDS011;35735;52.226;21.254;2022-08-03T12:21:21;5.50;;;4.68;;
44987;SDS011;35735;52.226;21.254;2022-08-03T12:26:24;8.13;;;4.20;;
44987;SDS011;35735;52.226;21.254;2022-08-03T12:31:26;9.35;;;4.80;;
44987;SDS011;35735;52.226;21.254;2022-08-03T12:36:27;8.02;;;4.62;;
44987;SDS011;35735;52.226;21.254;2022-08-03T12:41:32;5.10;;;4.60;;
44987;SDS011;35735;52.226;21.254;2022-08-03T12:46:38;11.55;;;4.85;;
44987;SDS011;35735;52.226;21.254;2022-08-03T13:02:03;5.35;;;4.30;;
44987;SDS011;35735;52.226;21.254;2022-08-03T13:07:05;5.00;;;4.47;;
44987;SDS011;35735;52.226;21.254;2022-08-03T13:12:09;7.47;;;4.50;;
44987;SDS011;35735;52.226;21.254;2022-08-03T13:17:18;5.22;;;4.40;;
44987;SDS011;35735;52.226;21.254;2022-08-03T13:27:22;7.47;;;4.70;;
44987;SDS011;35735;52.226;21.254;2022-08-03T13:32:23;4.85;;;4.35;;
44987;SDS011;35735;52.226;21.254;2022-08-03T13:37:24;5.82;;;4.32;;
44987;SDS011;35735;52.226;21.254;2022-08-03T13:42:25;7.47;;;4.57;;
44987;SDS011;35735;52.226;21.254;2022-08-03T13:47:28;6.90;;;4.90;;
44987;SDS011;35735;52.226;21.254;2022-08-03T13:52:29;5.00;;;4.53;;
44987;SDS011;35735;52.226;21.254;2022-08-03T13:57:32;5.68;;;5.10;;
44987;SDS011;35735;52.226;21.254;2022-08-03T14:02:33;6.65;;;4.65;;
44987;SDS011;35735;52.226;21.254;2022-08-03T14:07:34;7.62;;;4.85;;
44987;SDS011;35735;52.226;21.254;2022-08-03T14:12:35;5.30;;;4.87;;
44987;SDS011;35735;52.226;21.254;2022-08-03T14:17:35;8.25;;;4.75;;
44987;SDS011;35735;52.226;21.254;2022-08-03T14:22:36;5.18;;;4.75;;
44987;SDS011;35735;52.226;21.254;2022-08-03T14:27:36;8.43;;;4.62;;
44987;SDS011;35735;52.226;21.254;2022-08-03T14:32:37;5.40;;;4.87;;
44987;SDS011;35735;52.226;21.254;2022-08-03T14:37:38;10.00;;;5.00;;
44987;SDS011;35735;52.226;21.254;2022-08-03T14:42:39;8.65;;;4.60;;
44987;SDS011;35735;52.226;21.254;2022-08-03T14:47:39;5.30;;;4.35;;
44987;SDS011;35735;52.226;21.254;2022-08-03T14:52:44;5.60;;;4.80;;
44987;SDS011;35735;52.226;21.254;2022-08-03T14:57:46;19.12;;;9.63;;
44987;SDS011;35735;52.226;21.254;2022-08-03T15:02:46;22.85;;;9.70;;
44987;SDS011;35735;52.226;21.254;2022-08-03T15:07:47;11.95;;;6.15;;
44987;SDS011;35735;52.226;21.254;2022-08-03T15:12:47;7.25;;;5.10;;
44987;SDS011;35735;52.226;21.254;2022-08-03T15:17:48;6.47;;;4.57;;
44987;SDS011;35735;52.226;21.254;2022-08-03T15:22:49;12.98;;;4.97;;
44987;SDS011;35735;52.226;21.254;2022-08-03T15:27:49;6.45;;;4.85;;
44987;SDS011;35735;52.226;21.254;2022-08-03T15:32:50;8.00;;;5.10;;
44987;SDS011;35735;52.226;21.254;2022-08-03T15:37:50;7.15;;;5.20;;
44987;SDS011;35735;52.226;21.254;2022-08-03T15:42:51;6.53;;;4.43;;
44987;SDS011;35735;52.226;21.254;2022-08-03T15:47:51;8.38;;;5.10;;
44987;SDS011;35735;52.226;21.254;2022-08-03T15:52:52;6.35;;;4.72;;
44987;SDS011;35735;52.226;21.254;2022-08-03T15:57:55;6.90;;;5.20;;
44987;SDS011;35735;52.226;21.254;2022-08-03T16:02:56;19.73;;;7.05;;
44987;SDS011;35735;52.226;21.254;2022-08-03T16:07:56;9.23;;;4.78;;
44987;SDS011;35735;52.226;21.254;2022-08-03T16:12:57;7.12;;;5.32;;
44987;SDS011;35735;52.226;21.254;2022-08-03T16:17:57;4.60;;;4.20;;
44987;SDS011;35735;52.226;21.254;2022-08-03T16:22:58;7.20;;;5.10;;
44987;SDS011;35735;52.226;21.254;2022-08-03T16:27:58;6.78;;;4.70;;
44987;SDS011;35735;52.226;21.254;2022-08-03T16:32:59;6.65;;;4.65;;
44987;SDS011;35735;52.226;21.254;2022-08-03T16:37:59;5.15;;;4.57;;
44987;SDS011;35735;52.226;21.254;2022-08-03T16:43:00;5.97;;;5.28;;
44987;SDS011;35735;52.226;21.254;2022-08-03T16:48:01;6.07;;;5.45;;
44987;SDS011;35735;52.226;21.254;2022-08-03T16:53:05;6.62;;;5.07;;
44987;SDS011;35735;52.226;21.254;2022-08-03T16:58:07;8.25;;;5.28;;
44987;SDS011;35735;52.226;21.254;2022-08-03T17:03:10;8.82;;;5.12;;
44987;SDS011;35735;52.226;21.254;2022-08-03T17:08:11;7.55;;;5.72;;
44987;SDS011;35735;52.226;21.254;2022-08-03T17:13:12;6.43;;;5.18;;
44987;SDS011;35735;52.226;21.254;2022-08-03T17:18:12;8.15;;;5.30;;
44987;SDS011;35735;52.226;21.254;2022-08-03T17:28:40;6.72;;;5.10;;
44987;SDS011;35735;52.226;21.254;2022-08-03T17:33:49;14.82;;;6.60;;
44987;SDS011;35735;52.226;21.254;2022-08-03T17:38:51;22.60;;;10.25;;
44987;SDS011;35735;52.226;21.254;2022-08-03T17:43:52;36.63;;;15.68;;
44987;SDS011;35735;52.226;21.254;2022-08-03T17:48:52;26.85;;;13.55;;
44987;SDS011;35735;52.226;21.254;2022-08-03T17:54:15;27.10;;;9.05;;
44987;SDS011;35735;52.226;21.254;2022-08-03T18:05:01;32.75;;;7.82;;
44987;SDS011;35735;52.226;21.254;2022-08-03T18:10:05;47.92;;;9.50;;
44987;SDS011;35735;52.226;21.254;2022-08-03T18:15:07;43.55;;;9.40;;
44987;SDS011;35735;52.226;21.254;2022-08-03T18:20:12;47.25;;;9.77;;
44987;SDS011;35735;52.226;21.254;2022-08-03T18:25:13;33.13;;;8.98;;
44987;SDS011;35735;52.226;21.254;2022-08-03T18:30:14;14.70;;;6.78;;
44987;SDS011;35735;52.226;21.254;2022-08-03T18:35:15;16.85;;;6.72;;
44987;SDS011;35735;52.226;21.254;2022-08-03T18:40:15;19.35;;;7.47;;
44987;SDS011;35735;52.226;21.254;2022-08-03T18:45:17;9.30;;;6.22;;
44987;SDS011;35735;52.226;21.254;2022-08-03T18:50:22;8.55;;;6.05;;
44987;SDS011;35735;52.226;21.254;2022-08-03T19:00:32;10.65;;;6.90;;
44987;SDS011;35735;52.226;21.254;2022-08-03T19:05:37;9.75;;;7.07;;
44987;SDS011;35735;52.226;21.254;2022-08-03T19:10:44;13.48;;;7.00;;
44987;SDS011;35735;52.226;21.254;2022-08-03T19:15:51;11.18;;;7.05;;
44987;SDS011;35735;52.226;21.254;2022-08-03T19:20:56;11.82;;;7.40;;
44987;SDS011;35735;52.226;21.254;2022-08-03T19:25:56;19.45;;;7.40;;
44987;SDS011;35735;52.226;21.254;2022-08-03T19:30:59;16.75;;;9.57;;
44987;SDS011;35735;52.226;21.254;2022-08-03T19:36:00;21.48;;;7.80;;
44987;SDS011;35735;52.226;21.254;2022-08-03T19:41:02;13.90;;;8.18;;
44987;SDS011;35735;52.226;21.254;2022-08-03T19:46:06;20.48;;;8.50;;
44987;SDS011;35735;52.226;21.254;2022-08-03T19:51:11;25.62;;;8.80;;
44987;SDS011;35735;52.226;21.254;2022-08-03T19:56:11;15.82;;;9.30;;
44987;SDS011;35735;52.226;21.254;2022-08-03T20:01:18;16.33;;;9.32;;
44987;SDS011;35735;52.226;21.254;2022-08-03T20:06:19;27.65;;;11.00;;
44987;SDS011;35735;52.226;21.254;2022-08-03T20:11:24;30.12;;;11.00;;
44987;SDS011;35735;52.226;21.254;2022-08-03T20:16:25;24.23;;;11.68;;
44987;SDS011;35735;52.226;21.254;2022-08-03T20:21:26;21.77;;;12.43;;
44987;SDS011;35735;52.226;21.254;2022-08-03T20:26:30;17.10;;;11.23;;
44987;SDS011;35735;52.226;21.254;2022-08-03T20:31:31;17.23;;;12.80;;
44987;SDS011;35735;52.226;21.254;2022-08-03T20:36:32;16.62;;;12.07;;
44987;SDS011;35735;52.226;21.254;2022-08-03T20:41:32;17.62;;;12.15;;
44987;SDS011;35735;52.226;21.254;2022-08-03T20:46:33;14.63;;;12.15;;
44987;SDS011;35735;52.226;21.254;2022-08-03T20:51:34;15.68;;;12.52;;
44987;SDS011;35735;52.226;21.254;2022-08-03T20:56:34;18.20;;;12.50;;
44987;SDS011;35735;52.226;21.254;2022-08-03T21:01:35;20.17;;;11.93;;
44987;SDS011;35735;52.226;21.254;2022-08-03T21:06:38;16.83;;;12.80;;
44987;SDS011;35735;52.226;21.254;2022-08-03T21:11:47;16.70;;;11.90;;
44987;SDS011;35735;52.226;21.254;2022-08-03T21:16:50;38.33;;;18.75;;
44987;SDS011;35735;52.226;21.254;2022-08-03T21:21:52;24.25;;;18.42;;
44987;SDS011;35735;52.226;21.254;2022-08-03T21:26:54;26.25;;;17.62;;
44987;SDS011;35735;52.226;21.254;2022-08-03T21:31:55;21.98;;;16.55;;
44987;SDS011;35735;52.226;21.254;2022-08-03T21:36:58;22.62;;;15.77;;
44987;SDS011;35735;52.226;21.254;2022-08-03T21:41:58;16.85;;;12.93;;
44987;SDS011;35735;52.226;21.254;2022-08-03T21:46:59;15.18;;;11.93;;
44987;SDS011;35735;52.226;21.254;2022-08-03T21:52:04;13.18;;;11.88;;
44987;SDS011;35735;52.226;21.254;2022-08-03T21:57:09;17.75;;;14.32;;
44987;SDS011;35735;52.226;21.254;2022-08-03T22:02:17;14.25;;;12.77;;
44987;SDS011;35735;52.226;21.254;2022-08-03T22:07:30;13.57;;;12.20;;
44987;SDS011;35735;52.226;21.254;2022-08-03T22:12:31;12.75;;;11.50;;
44987;SDS011;35735;52.226;21.254;2022-08-03T22:17:34;14.68;;;11.12;;
44987;SDS011;35735;52.226;21.254;2022-08-03T22:22:36;13.88;;;10.68;;
44987;SDS011;35735;52.226;21.254;2022-08-03T22:27:38;12.85;;;11.48;;
44987;SDS011;35735;52.226;21.254;2022-08-03T22:32:42;11.90;;;10.07;;
44987;SDS011;35735;52.226;21.254;2022-08-03T22:37:44;13.23;;;10.15;;
44987;SDS011;35735;52.226;21.254;2022-08-03T22:42:48;15.95;;;10.82;;
44987;SDS011;35735;52.226;21.254;2022-08-03T22:47:49;18.12;;;13.18;;
44987;SDS011;35735;52.226;21.254;2022-08-03T22:52:51;16.80;;;14.30;;
44987;SDS011;35735;52.226;21.254;2022-08-03T22:57:53;13.65;;;11.40;;
44987;SDS011;35735;52.226;21.254;2022-08-03T23:02:54;14.23;;;12.15;;
44987;SDS011;35735;52.226;21.254;2022-08-03T23:08:01;18.27;;;12.60;;
44987;SDS011;35735;52.226;21.254;2022-08-03T23:13:03;21.48;;;14.32;;
44987;SDS011;35735;52.226;21.254;2022-08-03T23:18:04;33.40;;;20.42;;
44987;SDS011;35735;52.226;21.254;2022-08-03T23:23:07;32.42;;;20.08;;
44987;SDS011;35735;52.226;21.254;2022-08-03T23:28:08;25.92;;;19.95;;
44987;SDS011;35735;52.226;21.254;2022-08-03T23:33:15;21.02;;;14.75;;
44987;SDS011;35735;52.226;21.254;2022-08-03T23:38:16;17.58;;;11.85;;
44987;SDS011;35735;52.226;21.254;2022-08-03T23:43:19;16.75;;;10.73;;
44987;SDS011;35735;52.226;21.254;2022-08-03T23:48:21;13.93;;;9.80;;
44987;SDS011;35735;52.226;21.254;2022-08-03T23:53:34;13.43;;;9.57;;
